Time;durP1;ratioP1;P1;durP2;ratioP2;P2;SDS_P1;SDS_P2;PMS_P1;PMS_P2;Temp;Humidity;BMP_temperature;BMP_pressure;BME280_temperature;BME280_humidity;BME280_pressure;Samples;Min_cycle;Max_cycle;Signal;HPM_P1;HPM_P2
2021/07/14 00:01:01;;;;;;;12.32;6.40;;;;;;;27.14;49.12;100428.69;4971591;28;20118;-68
2021/07/14 00:03:30;;;;;;;12.55;6.70;;;;;;;27.00;49.05;100427.72;4970431;28;20069;-68
2021/07/14 00:05:58;;;;;;;14.20;6.00;;;;;;;26.93;49.40;100421.78;4971461;28;20066;-67
2021/07/14 00:08:27;;;;;;;11.55;5.75;;;;;;;26.90;49.24;100419.28;4970650;28;20043;-67
2021/07/14 00:10:54;;;;;;;14.60;6.00;;;;;;;26.78;49.30;100418.09;4970747;28;20154;-67
2021/07/14 00:13:30;;;;;;;12.18;5.88;;;;;;;26.79;49.23;100424.38;4971388;28;20075;-67
2021/07/14 00:24:12;;;;;;;12.50;5.70;;;;;;;26.82;49.01;100414.25;4969729;28;19921;-67
2021/07/14 00:26:40;;;;;;;9.02;5.57;;;;;;;26.82;48.70;100411.53;4971483;28;20038;-66
2021/07/14 00:29:11;;;;;;;9.57;5.32;;;;;;;26.80;48.36;100409.88;4971589;28;20079;-67
2021/07/14 00:31:41;;;;;;;13.48;6.18;;;;;;;26.83;48.15;100407.00;4959649;28;20066;-67
2021/07/14 00:34:12;;;;;;;12.30;5.50;;;;;;;26.79;48.80;100403.59;4970543;28;20047;-67
2021/07/14 00:36:42;;;;;;;11.00;5.55;;;;;;;26.78;48.23;100407.25;4966603;28;20441;-66
2021/07/14 00:39:10;;;;;;;13.00;5.80;;;;;;;26.83;47.89;100402.47;4970220;28;20038;-66
2021/07/14 00:41:38;;;;;;;9.90;5.50;;;;;;;26.75;48.04;100401.16;4971470;28;20385;-67
2021/07/14 00:44:06;;;;;;;9.95;5.20;;;;;;;26.74;47.90;100408.41;4971377;28;20055;-67
2021/07/14 00:46:33;;;;;;;11.75;5.95;;;;;;;26.75;48.27;100401.16;4969904;28;20043;-68
2021/07/14 00:49:03;;;;;;;10.38;5.60;;;;;;;26.78;47.82;100404.53;4970310;28;20058;-67
2021/07/14 00:51:31;;;;;;;12.38;5.78;;;;;;;26.78;47.93;100407.25;4971827;28;20062;-67
2021/07/14 00:54:00;;;;;;;13.18;5.40;;;;;;;26.80;47.81;100408.03;4952604;28;20045;-67
2021/07/14 00:56:28;;;;;;;10.95;5.47;;;;;;;26.71;47.97;100415.84;4971247;28;20039;-67
2021/07/14 00:58:58;;;;;;;13.80;5.55;;;;;;;26.69;47.56;100421.34;4969409;28;20467;-67
2021/07/14 01:01:29;;;;;;;13.52;5.65;;;;;;;26.69;47.94;100421.34;4965586;28;20046;-67
2021/07/14 01:04:12;;;;;;;11.57;5.60;;;;;;;26.82;47.36;100433.22;4966544;28;20508;-67
2021/07/14 01:07:07;;;;;;;10.07;5.50;;;;;;;26.86;47.45;100436.63;4964868;28;20049;-66
2021/07/14 01:09:47;;;;;;;11.18;5.40;;;;;;;26.85;47.45;100424.03;4967410;28;20054;-67
2021/07/14 01:12:21;;;;;;;13.52;5.78;;;;;;;26.84;47.44;100433.13;4971167;28;20138;-67
2021/07/14 01:14:58;;;;;;;12.18;5.65;;;;;;;26.86;47.43;100429.38;4970007;28;20122;-67
2021/07/14 01:17:27;;;;;;;15.90;5.72;;;;;;;26.89;47.17;100426.53;4971059;28;20118;-67
2021/07/14 01:20:42;;;;;;;8.95;5.30;;;;;;;26.82;46.92;100413.38;4968844;28;20122;-67
2021/07/14 01:23:17;;;;;;;10.55;5.28;;;;;;;26.74;47.35;100418.34;4929891;29;20051;-66
2021/07/14 01:26:06;;;;;;;7.97;5.30;;;;;;;26.81;47.24;100404.38;4930055;29;20148;-67
2021/07/14 01:28:41;;;;;;;12.48;5.65;;;;;;;26.79;47.51;100405.41;4939684;28;20051;-67
2021/07/14 01:31:13;;;;;;;9.25;5.03;;;;;;;26.75;47.93;100398.44;4938267;28;20045;-68
2021/07/14 01:33:43;;;;;;;11.35;5.55;;;;;;;26.77;47.46;100396.53;4969729;28;20058;-66
2021/07/14 01:36:15;;;;;;;10.90;5.18;;;;;;;26.70;47.63;100396.00;4956886;28;20114;-66
2021/07/14 01:38:45;;;;;;;13.13;5.28;;;;;;;26.67;48.06;100403.41;4963478;28;20046;-66
2021/07/14 01:41:16;;;;;;;14.23;4.80;;;;;;;26.68;48.32;100394.31;4972648;28;20459;-67
2021/07/14 01:43:50;;;;;;;8.32;5.50;;;;;;;26.69;47.95;100394.25;4971275;28;20126;-66
2021/07/14 01:46:23;;;;;;;10.45;5.10;;;;;;;26.63;47.87;100400.00;4957295;28;20047;-67
2021/07/14 01:48:54;;;;;;;9.73;4.88;;;;;;;26.67;47.82;100398.88;4961378;28;20038;-67
2021/07/14 01:51:26;;;;;;;11.00;5.88;;;;;;;26.69;47.62;100387.94;4961532;28;20102;-67
2021/07/14 01:53:53;;;;;;;11.40;5.45;;;;;;;26.63;47.64;100399.13;4965458;28;20043;-67
2021/07/14 01:56:22;;;;;;;7.75;4.93;;;;;;;26.52;48.28;100400.59;4962778;28;20585;-67
2021/07/14 01:58:55;;;;;;;11.20;5.35;;;;;;;26.52;48.21;100399.72;4955033;28;20091;-67
2021/07/14 02:01:22;;;;;;;11.18;5.10;;;;;;;26.47;48.06;100404.53;4960006;28;20049;-67
2021/07/14 02:04:30;;;;;;;9.82;4.82;;;;;;;26.44;48.06;100402.88;4964554;28;20043;-67
2021/07/14 02:06:50;;;;;;;10.47;4.60;;;;;;;26.48;48.40;100401.75;4965702;28;20039;-67
2021/07/14 02:09:18;;;;;;;12.23;5.20;;;;;;;26.45;48.12;100404.59;4971585;28;20113;-67
2021/07/14 02:11:48;;;;;;;7.82;4.45;;;;;;;26.46;47.72;100402.78;4967059;28;20126;-66
2021/07/14 02:14:24;;;;;;;10.75;5.60;;;;;;;26.42;48.21;100401.22;4961629;28;20126;-67
2021/07/14 02:16:52;;;;;;;8.02;4.80;;;;;;;26.43;47.95;100402.97;4953697;28;20119;-67
2021/07/14 02:19:22;;;;;;;8.73;4.65;;;;;;;26.44;47.80;100415.53;4945765;28;20455;-67
2021/07/14 02:21:50;;;;;;;9.60;4.82;;;;;;;26.38;47.78;100410.47;4971402;28;20047;-67
2021/07/14 02:24:21;;;;;;;8.30;4.82;;;;;;;26.38;47.52;100414.06;4962442;28;20119;-67
2021/07/14 02:26:54;;;;;;;8.75;5.35;;;;;;;26.36;47.89;100409.66;4967901;28;20050;-66
2021/07/14 02:29:27;;;;;;;9.40;4.57;;;;;;;26.35;47.65;100410.63;4967205;28;20047;-67
2021/07/14 02:32:04;;;;;;;8.52;4.57;;;;;;;26.34;47.39;100411.56;4966375;28;20413;-67
2021/07/14 02:34:33;;;;;;;13.82;5.43;;;;;;;26.33;47.53;100409.81;4968546;28;20049;-67
2021/07/14 02:37:05;;;;;;;8.52;4.85;;;;;;;26.36;47.54;100412.38;4970613;28;20054;-67
2021/07/14 02:39:33;;;;;;;9.73;4.47;;;;;;;26.37;47.09;100400.59;4973263;28;20065;-67
2021/07/14 02:42:07;;;;;;;10.40;5.05;;;;;;;26.40;47.39;100408.53;4972308;28;20512;-67
2021/07/14 02:44:43;;;;;;;13.68;4.95;;;;;;;26.42;47.21;100406.63;4956060;28;20043;-67
2021/07/14 02:47:13;;;;;;;12.75;4.72;;;;;;;26.46;47.08;100410.91;4971069;28;20524;-67
2021/07/14 02:49:44;;;;;;;15.77;4.80;;;;;;;26.45;46.76;100412.72;4972493;28;20119;-66
2021/07/14 02:52:13;;;;;;;14.18;4.97;;;;;;;26.43;46.91;100414.66;4972231;28;20043;-67
2021/07/14 02:54:43;;;;;;;12.70;4.53;;;;;;;26.42;47.10;100407.50;4971632;28;20122;-66
2021/07/14 02:57:14;;;;;;;17.80;5.65;;;;;;;26.42;47.22;100406.63;4972350;28;20580;-66
2021/07/14 02:59:50;;;;;;;8.57;4.82;;;;;;;26.37;47.17;100408.72;4972670;28;20565;-66
2021/07/14 03:02:20;;;;;;;12.18;4.63;;;;;;;26.32;47.08;100411.66;4971528;28;20385;-68
2021/07/14 03:04:52;;;;;;;8.07;4.65;;;;;;;26.37;47.60;100408.72;4971229;28;20542;-68
2021/07/14 03:07:27;;;;;;;13.50;4.65;;;;;;;26.36;47.37;100404.25;4969403;28;20046;-67
2021/07/14 03:09:55;;;;;;;12.43;4.93;;;;;;;26.39;47.47;100414.91;4966987;28;20057;-67
2021/07/14 03:12:25;;;;;;;13.30;5.63;;;;;;;26.41;47.20;100408.44;4966276;28;20059;-67
2021/07/14 03:15:03;;;;;;;15.02;5.30;;;;;;;26.44;47.57;100418.25;4969273;28;20038;-67
2021/07/14 03:17:33;;;;;;;11.23;5.18;;;;;;;26.42;47.61;100429.16;4968516;28;20074;-67
2021/07/14 03:20:02;;;;;;;9.30;4.72;;;;;;;26.45;47.72;100425.41;4971393;28;20207;-67
2021/07/14 03:22:30;;;;;;;13.10;5.63;;;;;;;26.48;47.45;100433.34;4971913;28;20611;-67
2021/07/14 03:24:58;;;;;;;9.93;4.65;;;;;;;26.55;47.43;100430.22;4970954;28;20489;-68
2021/07/14 03:27:26;;;;;;;10.75;4.30;;;;;;;26.63;47.80;100429.81;4970180;28;20129;-67
2021/07/14 03:29:59;;;;;;;10.63;4.70;;;;;;;26.70;47.27;100431.22;4972356;28;20062;-68
2021/07/14 03:32:27;;;;;;;11.10;4.90;;;;;;;26.80;47.51;100435.13;4971507;28;20049;-68
2021/07/14 03:34:55;;;;;;;10.38;4.85;;;;;;;26.87;47.64;100414.88;4971728;28;20089;-67
2021/07/14 03:50:18;;;;;;;12.77;4.43;;;;;;;27.77;45.94;100426.72;5015852;28;20373;-67
2021/07/14 03:52:46;;;;;;;11.48;4.72;;;;;;;27.77;45.40;100424.00;5019390;28;20057;-67
2021/07/14 03:55:16;;;;;;;7.80;4.03;;;;;;;27.83;45.18;100436.31;5027410;28;20057;-68
2021/07/14 03:57:44;;;;;;;7.70;4.20;;;;;;;27.91;45.44;100441.28;5026706;28;20077;-66
2021/07/14 04:00:13;;;;;;;9.20;3.95;;;;;;;27.99;44.87;100442.56;5024915;28;20046;-66
2021/07/14 04:02:45;;;;;;;8.90;4.57;;;;;;;28.09;45.07;100440.16;5007427;28;20084;-68
2021/07/14 04:05:14;;;;;;;9.13;3.90;;;;;;;28.19;44.63;100440.47;4988870;28;20042;-67
2021/07/14 04:07:46;;;;;;;9.18;3.78;;;;;;;28.32;44.99;100436.03;4990422;28;20058;-67
2021/07/14 04:10:15;;;;;;;9.02;3.80;;;;;;;28.45;44.77;100439.72;4987906;28;20105;-67
2021/07/14 04:12:43;;;;;;;10.40;4.00;;;;;;;28.59;44.96;100437.00;4992509;28;20057;-66
2021/07/14 04:15:11;;;;;;;11.20;4.35;;;;;;;28.70;44.63;100436.28;5004556;28;20510;-68
2021/07/14 04:17:39;;;;;;;8.32;3.65;;;;;;;28.81;43.80;100445.56;4996332;28;20049;-68
2021/07/14 04:20:07;;;;;;;11.25;4.25;;;;;;;28.92;43.37;100433.97;4988162;28;20411;-67
2021/07/14 04:22:34;;;;;;;7.25;4.07;;;;;;;29.01;43.20;100436.09;4993251;28;20045;-67
2021/07/14 04:25:07;;;;;;;6.20;3.97;;;;;;;29.16;42.99;100442.34;4991548;28;20038;-67
2021/07/14 04:27:35;;;;;;;11.02;4.15;;;;;;;29.29;43.09;100444.13;5006575;28;20125;-67
2021/07/14 04:30:03;;;;;;;10.40;4.03;;;;;;;29.45;42.64;100445.88;5004739;28;20056;-68
2021/07/14 04:32:30;;;;;;;11.13;4.88;;;;;;;29.61;42.46;100446.53;4995459;28;20496;-68
2021/07/14 04:34:58;;;;;;;8.27;4.47;;;;;;;29.79;42.15;100447.16;4987942;28;20053;-68
2021/07/14 04:37:25;;;;;;;8.55;4.05;;;;;;;29.93;41.77;100450.66;4994752;28;20404;-67
2021/07/14 04:39:53;;;;;;;9.05;4.28;;;;;;;30.04;41.09;100453.53;4992808;28;20117;-68
2021/07/14 04:42:22;;;;;;;7.18;3.67;;;;;;;30.17;41.05;100455.41;5005061;28;20034;-67
2021/07/14 04:44:51;;;;;;;7.57;3.88;;;;;;;30.31;41.16;100456.16;4997490;28;20042;-68
2021/07/14 04:47:19;;;;;;;8.00;3.95;;;;;;;30.52;40.77;100461.97;4991078;28;20042;-67
2021/07/14 04:49:46;;;;;;;10.15;3.78;;;;;;;30.69;40.73;100458.88;5015870;28;20440;-67
2021/07/14 04:52:14;;;;;;;10.18;4.38;;;;;;;30.85;40.64;100477.72;4993934;28;20057;-68
2021/07/14 04:54:41;;;;;;;8.48;3.85;;;;;;;31.06;40.22;100472.56;4999490;28;20050;-67
2021/07/14 04:57:10;;;;;;;9.40;3.72;;;;;;;31.27;39.95;100471.84;4997698;28;20558;-68
2021/07/14 04:59:39;;;;;;;9.82;3.75;;;;;;;31.45;39.83;100474.16;5008287;28;20053;-68
2021/07/14 05:02:07;;;;;;;8.52;3.83;;;;;;;31.60;39.60;100475.75;5010934;28;20041;-68
2021/07/14 05:04:36;;;;;;;9.75;3.78;;;;;;;31.81;39.37;100485.03;5013166;28;20521;-68
2021/07/14 05:07:05;;;;;;;6.78;3.97;;;;;;;32.08;38.92;100478.41;5008345;28;20046;-68
2021/07/14 05:09:32;;;;;;;7.38;3.58;;;;;;;32.23;38.91;100482.72;5003799;28;20049;-68
2021/07/14 05:11:59;;;;;;;9.65;4.38;;;;;;;32.34;38.90;100477.25;5011460;28;20038;-67
2021/07/14 05:14:27;;;;;;;11.93;4.00;;;;;;;32.42;38.82;100480.25;5005243;28;20100;-68
2021/07/14 05:16:55;;;;;;;7.90;3.85;;;;;;;32.60;38.66;100484.25;4998707;28;20049;-67
2021/07/14 05:19:23;;;;;;;10.43;3.60;;;;;;;32.82;38.34;100483.41;5005420;28;20133;-67
2021/07/14 05:21:51;;;;;;;7.65;4.00;;;;;;;32.99;38.07;100491.09;5008158;28;20046;-67
2021/07/14 05:24:19;;;;;;;7.95;3.63;;;;;;;33.14;37.95;100486.22;5006911;28;20111;-67
2021/07/14 05:26:47;;;;;;;8.15;3.97;;;;;;;33.18;37.42;100485.84;5003449;28;20074;-67
2021/07/14 05:29:14;;;;;;;7.95;3.88;;;;;;;33.26;37.26;100492.56;5004105;28;20474;-66
2021/07/14 05:31:42;;;;;;;8.43;4.15;;;;;;;33.36;36.99;100485.31;5003617;28;20117;-65
2021/07/14 05:34:11;;;;;;;8.70;3.53;;;;;;;33.47;37.13;100472.50;5008148;28;20050;-66
2021/07/14 05:36:38;;;;;;;7.22;3.70;;;;;;;33.54;36.41;100483.78;5000531;28;20050;-67
2021/07/14 05:39:06;;;;;;;6.93;3.55;;;;;;;33.67;36.50;100484.50;5008981;28;20101;-67
2021/07/14 05:41:33;;;;;;;8.20;4.03;;;;;;;33.93;36.09;100485.03;5009615;28;20045;-67
2021/07/14 05:44:01;;;;;;;9.43;3.75;;;;;;;34.17;35.89;100482.00;4997627;28;20104;-67
2021/07/14 05:46:29;;;;;;;7.60;4.05;;;;;;;34.36;35.29;100485.78;5009466;28;20060;-67
2021/07/14 05:49:00;;;;;;;8.77;3.95;;;;;;;34.58;35.33;100486.63;5007598;28;20034;-67
2021/07/14 05:51:29;;;;;;;11.27;3.90;;;;;;;34.77;34.73;100484.88;5005578;28;20698;-67
2021/07/14 05:53:56;;;;;;;10.27;4.03;;;;;;;34.90;34.37;100489.25;5011326;28;20048;-68
2021/07/14 05:56:24;;;;;;;7.55;4.10;;;;;;;34.97;34.32;100498.66;5011496;28;20041;-67
2021/07/14 05:58:51;;;;;;;8.75;3.92;;;;;;;34.89;34.15;100495.75;5007437;28;20061;-67
2021/07/14 06:01:19;;;;;;;10.90;3.75;;;;;;;34.92;34.23;100500.97;5006249;28;20038;-67
2021/07/14 06:03:47;;;;;;;8.73;4.32;;;;;;;34.99;34.06;100502.13;5003367;28;20072;-67
2021/07/14 06:06:15;;;;;;;8.80;3.55;;;;;;;35.03;33.85;100495.38;5001907;28;20105;-68
2021/07/14 06:08:47;;;;;;;9.00;3.80;;;;;;;35.16;33.79;100499.59;4996448;28;20037;-67
2021/07/14 06:11:15;;;;;;;6.97;3.50;;;;;;;35.22;33.68;100508.31;5003462;28;20104;-67
2021/07/14 06:13:42;;;;;;;9.07;4.32;;;;;;;35.47;33.18;100500.41;5000957;28;20412;-67
2021/07/14 06:16:10;;;;;;;5.80;3.47;;;;;;;35.67;33.17;100505.91;5005801;28;20060;-69
2021/07/14 06:18:38;;;;;;;8.38;3.92;;;;;;;35.68;33.11;100503.03;5007045;28;20054;-68
2021/07/14 06:21:05;;;;;;;9.27;4.35;;;;;;;35.66;32.98;100509.69;5002604;28;20096;-69
2021/07/14 06:23:33;;;;;;;12.15;4.47;;;;;;;35.70;32.76;100509.31;5003474;28;20049;-68
2021/07/14 06:26:02;;;;;;;11.05;4.07;;;;;;;35.73;32.38;100495.25;5008655;28;20049;-68
2021/07/14 06:28:30;;;;;;;8.40;4.00;;;;;;;35.74;32.14;100509.88;5005498;28;20044;-68
2021/07/14 06:30:59;;;;;;;12.00;4.00;;;;;;;35.53;32.23;100502.59;5008534;28;20379;-68
2021/07/14 06:33:28;;;;;;;8.23;3.85;;;;;;;35.48;32.40;100504.03;5003589;28;20380;-68
2021/07/14 06:35:56;;;;;;;10.10;3.65;;;;;;;35.62;31.89;100502.75;5003759;28;20562;-68
2021/07/14 06:38:24;;;;;;;5.70;3.42;;;;;;;35.93;31.59;100509.88;5001230;28;20521;-68
2021/07/14 06:40:51;;;;;;;12.93;4.30;;;;;;;36.00;31.33;100510.16;5009870;28;20042;-68
2021/07/14 06:43:20;;;;;;;8.45;3.65;;;;;;;35.95;31.39;100510.59;5008542;28;20499;-69
2021/07/14 06:45:48;;;;;;;9.70;3.78;;;;;;;35.91;31.37;100511.88;5004568;28;20056;-68
2021/07/14 06:48:16;;;;;;;9.82;4.10;;;;;;;35.86;31.86;100514.22;4999300;28;20054;-69
2021/07/14 06:50:43;;;;;;;9.88;4.03;;;;;;;35.93;31.52;100516.25;4998457;28;20117;-67
2021/07/14 06:53:11;;;;;;;10.18;3.90;;;;;;;35.91;31.40;100512.75;4995896;28;20048;-69
2021/07/14 06:55:39;;;;;;;6.60;3.67;;;;;;;35.91;31.35;100514.63;5003547;28;20045;-69
2021/07/14 06:58:06;;;;;;;8.38;3.80;;;;;;;36.09;31.06;100510.16;4994685;28;20041;-69
2021/07/14 07:00:38;;;;;;;9.07;3.45;;;;;;;36.25;31.27;100513.19;5004088;28;20662;-68
2021/07/14 07:03:05;;;;;;;7.90;3.90;;;;;;;36.38;31.09;100514.75;5003243;28;20483;-68
2021/07/14 07:05:33;;;;;;;5.75;3.38;;;;;;;36.26;30.81;100514.94;5010002;28;20053;-69
2021/07/14 07:08:00;;;;;;;7.03;3.50;;;;;;;36.21;30.78;100506.28;5007205;28;20129;-68
2021/07/14 07:10:28;;;;;;;11.45;3.90;;;;;;;36.17;30.72;100512.22;5010206;28;20026;-69
2021/07/14 07:12:55;;;;;;;8.65;3.78;;;;;;;36.20;30.75;100517.41;5010523;28;20511;-70
2021/07/14 07:15:23;;;;;;;6.55;3.67;;;;;;;36.31;30.74;100503.47;5005267;28;20053;-69
2021/07/14 07:17:53;;;;;;;8.07;3.45;;;;;;;36.53;30.65;100508.66;5001756;28;20094;-69
2021/07/14 07:20:20;;;;;;;6.68;3.90;;;;;;;36.73;30.72;100523.25;4995225;28;20415;-68
2021/07/14 07:22:47;;;;;;;8.35;3.78;;;;;;;36.71;30.32;100512.38;5003232;28;20042;-68
2021/07/14 07:25:15;;;;;;;12.55;4.25;;;;;;;36.85;30.22;100518.44;5002260;28;20053;-68
2021/07/14 07:27:43;;;;;;;8.48;4.00;;;;;;;37.03;29.68;100514.72;5006175;28;20050;-69
2021/07/14 07:30:12;;;;;;;7.68;3.63;;;;;;;37.23;29.37;100512.75;5006052;28;20129;-70
2021/07/14 07:32:40;;;;;;;7.78;4.10;;;;;;;37.31;29.26;100531.28;5003909;28;20034;-69
2021/07/14 07:35:11;;;;;;;8.48;3.70;;;;;;;37.56;29.07;100527.78;5010928;28;20133;-70
2021/07/14 07:37:38;;;;;;;9.18;3.90;;;;;;;37.56;29.04;100535.16;5006793;28;20057;-69
2021/07/14 07:40:07;;;;;;;8.40;3.42;;;;;;;37.63;28.82;100526.16;5009666;28;20049;-70
2021/07/14 07:42:34;;;;;;;10.65;3.97;;;;;;;37.86;29.11;100532.09;5010438;28;20052;-70
2021/07/14 07:45:02;;;;;;;6.20;3.58;;;;;;;38.03;29.13;100535.91;4996312;28;20057;-70
2021/07/14 07:47:30;;;;;;;7.35;4.00;;;;;;;38.19;29.05;100536.06;5000693;28;20120;-70
2021/07/14 07:49:57;;;;;;;7.32;3.42;;;;;;;38.31;28.70;100542.19;5003794;28;20088;-70
2021/07/14 07:52:26;;;;;;;6.15;3.63;;;;;;;38.44;28.46;100535.22;4991136;28;20046;-70
2021/07/14 07:54:55;;;;;;;10.52;3.88;;;;;;;38.49;28.35;100540.28;4991473;28;20133;-69
2021/07/14 07:57:23;;;;;;;14.38;3.90;;;;;;;38.46;27.92;100544.22;5008751;28;20030;-70
2021/07/14 07:59:50;;;;;;;9.88;3.70;;;;;;;38.08;27.67;100552.81;5000604;28;20096;-70
2021/07/14 08:02:18;;;;;;;22.98;4.80;;;;;;;38.14;27.74;100543.91;4991820;28;20079;-69
2021/07/14 08:04:45;;;;;;;11.23;4.10;;;;;;;38.24;27.89;100550.22;4990590;28;20042;-68
2021/07/14 08:07:12;;;;;;;8.88;3.88;;;;;;;38.27;27.69;100547.13;4990048;28;20109;-69
2021/07/14 08:09:41;;;;;;;6.00;3.30;;;;;;;38.33;27.71;100551.16;5015440;28;20046;-69
2021/07/14 08:12:09;;;;;;;9.20;4.13;;;;;;;38.20;28.05;100543.31;5009124;28;20042;-70
2021/07/14 08:14:37;;;;;;;7.10;3.60;;;;;;;38.17;28.53;100550.00;5010100;28;20038;-70
2021/07/14 08:17:04;;;;;;;9.93;4.13;;;;;;;38.18;28.46;100561.91;5007105;28;20460;-70
2021/07/14 08:19:32;;;;;;;7.00;4.15;;;;;;;38.25;28.52;100549.19;5004241;28;20119;-68
2021/07/14 08:21:59;;;;;;;10.23;4.05;;;;;;;38.33;28.96;100568.59;5007377;28;20038;-68
2021/07/14 08:24:27;;;;;;;10.20;4.53;;;;;;;38.31;29.00;100556.84;5010936;28;20046;-68
2021/07/14 08:26:56;;;;;;;8.75;4.85;;;;;;;38.45;28.95;100545.22;5008418;28;20446;-67
2021/07/14 08:29:23;;;;;;;8.70;4.20;;;;;;;38.52;28.84;100559.28;5012851;28;20038;-68
2021/07/14 08:31:54;;;;;;;7.70;3.85;;;;;;;38.41;28.83;100548.44;5012330;28;20372;-67
2021/07/14 08:34:22;;;;;;;5.30;3.60;;;;;;;38.42;28.91;100545.53;5011826;28;20042;-67
2021/07/14 08:36:50;;;;;;;6.70;3.75;;;;;;;38.41;28.90;100552.06;5013713;28;20104;-66
2021/07/14 08:39:17;;;;;;;9.55;3.65;;;;;;;38.36;29.10;100550.81;5010739;28;20046;-67
2021/07/14 08:41:46;;;;;;;10.40;4.30;;;;;;;38.21;29.80;100553.28;5001158;28;20046;-67
2021/07/14 08:44:15;;;;;;;7.35;3.70;;;;;;;38.20;29.69;100562.63;5001951;28;20416;-68
2021/07/14 08:46:43;;;;;;;12.30;4.85;;;;;;;38.10;30.15;100575.59;4994396;28;20046;-68
2021/07/14 08:49:11;;;;;;;7.22;3.78;;;;;;;37.99;30.08;100562.91;4994009;28;20126;-68
2021/07/14 08:51:39;;;;;;;8.30;3.90;;;;;;;37.91;30.12;100565.56;5001103;28;20049;-67
2021/07/14 08:54:06;;;;;;;6.85;3.60;;;;;;;38.00;29.78;100572.03;5011551;28;20079;-68
2021/07/14 08:56:34;;;;;;;11.13;4.85;;;;;;;38.00;29.65;100559.13;5009530;28;20487;-67
2021/07/14 08:59:02;;;;;;;9.27;3.60;;;;;;;38.09;29.03;100574.75;5011187;28;20045;-68
2021/07/14 09:01:31;;;;;;;8.05;4.32;;;;;;;38.05;28.85;100573.34;5012528;28;20117;-67
2021/07/14 09:04:00;;;;;;;8.00;4.10;;;;;;;38.05;29.01;100561.44;5012324;28;20053;-67
2021/07/14 09:06:27;;;;;;;7.97;4.28;;;;;;;38.19;28.98;100567.25;5012683;28;20038;-67
2021/07/14 09:08:55;;;;;;;13.80;4.75;;;;;;;38.22;28.78;100572.44;5013331;28;20042;-68
2021/07/14 09:11:22;;;;;;;9.30;4.15;;;;;;;38.18;28.85;100565.53;5004774;28;20403;-68
2021/07/14 09:13:50;;;;;;;10.50;4.07;;;;;;;38.23;28.53;100574.19;4995452;28;20510;-67
2021/07/14 09:16:37;;;;;;;7.78;4.18;;;;;;;38.12;28.17;100576.31;5003330;28;20499;-67
2021/07/14 09:19:10;;;;;;;10.85;4.78;;;;;;;38.16;28.62;100572.22;4996788;28;21155;-68
2021/07/14 09:21:41;;;;;;;10.63;4.80;;;;;;;38.11;28.50;100566.31;5010543;28;20052;-67
2021/07/14 09:24:33;;;;;;;7.60;3.90;;;;;;;38.10;28.12;100578.38;5012448;28;20045;-67
2021/07/14 09:27:03;;;;;;;8.45;4.85;;;;;;;38.09;28.35;100576.63;4998972;28;20042;-67
2021/07/14 09:29:32;;;;;;;7.55;4.00;;;;;;;38.20;28.17;100579.16;4993873;28;20043;-67
2021/07/14 09:32:01;;;;;;;8.18;3.97;;;;;;;38.25;27.91;100569.38;5005995;28;20040;-67
2021/07/14 09:34:30;;;;;;;8.60;3.72;;;;;;;38.24;28.16;100575.06;5011166;28;20046;-68
2021/07/14 09:37:01;;;;;;;7.00;3.85;;;;;;;38.30;27.83;100579.94;5009656;28;20038;-67
2021/07/14 09:39:39;;;;;;;7.35;3.80;;;;;;;38.14;28.26;100583.41;4993057;28;20039;-67
2021/07/14 09:42:13;;;;;;;9.18;4.25;;;;;;;37.95;28.65;100582.66;5005018;28;20049;-68
2021/07/14 09:44:48;;;;;;;10.75;4.05;;;;;;;37.70;29.39;100578.78;5012714;28;20052;-67
2021/07/14 09:47:19;;;;;;;9.35;4.75;;;;;;;37.69;29.92;100585.31;4997730;28;20048;-65
2021/07/14 09:49:47;;;;;;;6.07;3.78;;;;;;;37.74;29.93;100560.94;5012896;28;20080;-66
2021/07/14 09:52:17;;;;;;;10.48;5.15;;;;;;;37.62;29.76;100574.03;5012168;28;20052;-67
2021/07/14 09:54:45;;;;;;;9.75;4.32;;;;;;;37.67;29.64;100582.72;4995600;28;20055;-67
2021/07/14 09:57:14;;;;;;;7.53;4.05;;;;;;;37.61;29.78;100569.56;5008900;28;20064;-68
2021/07/14 09:59:42;;;;;;;10.80;4.63;;;;;;;37.74;29.61;100567.31;5010907;28;20807;-69
2021/07/14 10:02:13;;;;;;;8.40;4.15;;;;;;;37.58;29.72;100580.88;5007721;28;20065;-69
2021/07/14 10:04:44;;;;;;;14.63;4.63;;;;;;;37.58;29.30;100575.38;5011597;28;20041;-69
2021/07/14 10:07:14;;;;;;;11.30;4.50;;;;;;;37.66;29.02;100569.09;5012168;28;20045;-68
2021/07/14 10:09:44;;;;;;;9.55;4.18;;;;;;;37.56;29.06;100576.50;5010912;28;20130;-68
2021/07/14 10:12:29;;;;;;;11.07;4.40;;;;;;;37.47;29.28;100556.28;5008731;28;20053;-69
2021/07/14 10:14:57;;;;;;;11.15;4.35;;;;;;;37.55;29.39;100563.78;5011642;28;20056;-69
2021/07/14 10:17:38;;;;;;;11.88;4.13;;;;;;;37.55;29.04;100566.53;5009158;28;20414;-70
2021/07/14 10:20:35;;;;;;;7.90;4.43;;;;;;;37.43;28.78;100565.84;5009230;28;24719;-70
2021/07/14 10:23:05;;;;;;;9.23;4.25;;;;;;;37.37;28.88;100559.06;4997496;28;20044;-68
2021/07/14 10:25:35;;;;;;;8.50;3.95;;;;;;;37.23;28.73;100562.34;5009991;28;20048;-70
2021/07/14 10:28:05;;;;;;;10.00;4.35;;;;;;;37.38;28.62;100557.19;4992077;28;20138;-68
2021/07/14 10:30:33;;;;;;;6.43;4.05;;;;;;;37.44;28.12;100560.19;5009794;28;20036;-68
2021/07/14 10:33:02;;;;;;;6.82;4.53;;;;;;;37.31;28.47;100548.66;5009287;28;20034;-68
2021/07/14 10:35:37;;;;;;;9.48;5.00;;;;;;;37.18;28.96;100558.31;5010090;28;20119;-69
2021/07/14 10:38:06;;;;;;;14.07;4.70;;;;;;;37.08;29.04;100558.34;5011755;28;20049;-68
2021/07/14 10:40:34;;;;;;;7.90;4.57;;;;;;;37.14;29.11;100557.75;5006164;28;20064;-68
2021/07/14 10:43:02;;;;;;;9.45;4.38;;;;;;;36.98;29.36;100557.50;4998886;28;20415;-69
2021/07/14 10:45:29;;;;;;;10.73;5.47;;;;;;;37.05;29.41;100554.00;4996824;28;20064;-69
2021/07/14 10:47:57;;;;;;;11.25;5.15;;;;;;;37.14;29.39;100549.50;4996201;28;20042;-69
2021/07/14 10:50:26;;;;;;;9.73;4.70;;;;;;;37.16;29.78;100566.72;5009452;28;20030;-69
2021/07/14 10:52:56;;;;;;;9.45;4.60;;;;;;;37.25;29.76;100571.31;5011616;28;20377;-69
2021/07/14 10:55:27;;;;;;;12.02;5.00;;;;;;;37.13;29.77;100557.91;5008940;28;20042;-69
2021/07/14 10:57:55;;;;;;;12.40;5.10;;;;;;;36.92;29.93;100547.09;5000984;28;20398;-69
2021/07/14 11:00:23;;;;;;;10.40;4.95;;;;;;;36.98;29.37;100557.50;5003969;28;20042;-68
2021/07/14 11:02:55;;;;;;;12.43;5.55;;;;;;;37.18;29.38;100558.31;5003441;28;20052;-67
2021/07/14 11:05:44;;;;;;;12.07;5.00;;;;;;;37.24;29.06;100568.72;5004514;28;20042;-69
2021/07/14 11:08:40;;;;;;;12.60;5.18;;;;;;;37.23;29.09;100547.69;5001390;28;20072;-69
2021/07/14 11:11:07;;;;;;;12.35;5.10;;;;;;;37.18;29.22;100558.31;5001490;28;20128;-68
2021/07/14 11:13:37;;;;;;;9.48;5.00;;;;;;;37.22;29.45;100551.50;5009891;28;20128;-69
2021/07/14 11:16:32;;;;;;;14.95;4.78;;;;;;;37.43;29.82;100552.06;5006058;28;20045;-68
2021/07/14 11:19:09;;;;;;;18.25;5.35;;;;;;;37.72;29.18;100536.25;4995308;28;20052;-68
2021/07/14 11:21:57;;;;;;;11.82;4.45;;;;;;;37.68;29.07;100556.03;5001684;28;20038;-68
2021/07/14 11:24:55;;;;;;;11.13;4.15;;;;;;;37.87;28.72;100545.72;5005897;28;20045;-68
2021/07/14 11:27:56;;;;;;;10.10;4.65;;;;;;;38.09;28.20;100544.41;5000278;28;20038;-68
2021/07/14 11:30:35;;;;;;;10.35;4.55;;;;;;;38.10;28.57;100524.06;4995734;28;20046;-68
2021/07/14 11:33:04;;;;;;;11.80;4.40;;;;;;;38.19;28.26;100544.31;5008643;28;20113;-68
2021/07/14 11:35:37;;;;;;;12.15;4.70;;;;;;;38.29;27.83;100534.91;5008146;28;20036;-68
2021/07/14 11:38:06;;;;;;;13.63;4.10;;;;;;;38.40;27.86;100538.47;4992811;28;20384;-68
2021/07/14 11:40:40;;;;;;;10.20;4.80;;;;;;;38.61;27.71;100539.84;4999423;28;20041;-69
2021/07/14 11:43:26;;;;;;;10.95;4.47;;;;;;;38.79;26.51;100544.47;5004985;28;20057;-68
2021/07/14 11:45:56;;;;;;;10.15;4.68;;;;;;;38.92;26.44;100543.00;5004179;28;20128;-68
2021/07/14 11:48:29;;;;;;;6.80;3.97;;;;;;;38.93;25.84;100538.31;5003369;28;20053;-68
2021/07/14 11:50:58;;;;;;;12.95;4.65;;;;;;;38.82;26.11;100544.09;5001097;28;20038;-70
2021/07/14 11:53:40;;;;;;;11.70;4.18;;;;;;;38.79;25.68;100552.75;5010265;28;20038;-68
2021/07/14 11:56:23;;;;;;;11.23;5.53;;;;;;;38.66;25.58;100548.50;5001168;28;22354;-69
2021/07/14 11:59:04;;;;;;;15.75;8.18;;;;;;;38.57;26.05;100548.63;5006343;28;20046;-66